sensor_id;sensor_type;location;lat;lon;timestamp;pressure;altitude;pressure_sealevel;temperature;humidity
54600;BME280;40500;51.084;16.958;2023-05-12T00:01:45;100433.93;;;12.32;100.00
54600;BME280;40500;51.084;16.958;2023-05-12T00:04:15;100435.96;;;12.28;100.00
54600;BME280;40500;51.084;16.958;2023-05-12T00:06:46;100441.29;;;12.25;100.00
54600;BME280;40500;51.084;16.958;2023-05-12T00:09:16;100437.88;;;12.21;100.00
54600;BME280;40500;51.084;16.958;2023-05-12T00:11:47;100436.02;;;12.17;100.00
54600;BME280;40500;51.084;16.958;2023-05-12T00:14:18;100439.95;;;12.14;100.00
54600;BME280;40500;51.084;16.958;2023-05-12T00:16:48;100437.75;;;12.10;100.00
54600;BME280;40500;51.084;16.958;2023-05-12T00:19:20;100437.67;;;12.06;100.00
54600;BME280;40500;51.084;16.958;2023-05-12T00:21:50;100438.45;;;12.03;100.00
54600;BME280;40500;51.084;16.958;2023-05-12T00:24:21;100436.41;;;11.99;100.00
54600;BME280;40500;51.084;16.958;2023-05-12T00:26:52;100434.55;;;11.96;100.00
54600;BME280;40500;51.084;16.958;2023-05-12T00:29:22;100436.93;;;11.91;100.00
54600;BME280;40500;51.084;16.958;2023-05-12T00:31:53;100435.74;;;11.87;100.00
54600;BME280;40500;51.084;16.958;2023-05-12T00:34:24;100435.11;;;11.84;100.00
54600;BME280;40500;51.084;16.958;2023-05-12T00:36:55;100437.83;;;11.80;100.00
54600;BME280;40500;51.084;16.958;2023-05-12T00:39:26;100438.45;;;11.76;100.00
54600;BME280;40500;51.084;16.958;2023-05-12T00:41:57;100446.06;;;11.72;100.00
54600;BME280;40500;51.084;16.958;2023-05-12T00:44:28;100446.11;;;11.69;100.00
54600;BME280;40500;51.084;16.958;2023-05-12T00:46:58;100446.54;;;11.65;100.00
54600;BME280;40500;51.084;16.958;2023-05-12T00:49:29;100447.50;;;11.61;100.00
54600;BME280;40500;51.084;16.958;2023-05-12T00:52:02;100446.19;;;11.57;100.00
54600;BME280;40500;51.084;16.958;2023-05-12T00:54:33;100445.05;;;11.52;100.00
54600;BME280;40500;51.084;16.958;2023-05-12T00:57:05;100449.51;;;11.47;100.00
54600;BME280;40500;51.084;16.958;2023-05-12T00:59:35;100448.02;;;11.43;100.00
54600;BME280;40500;51.084;16.958;2023-05-12T01:02:06;100448.97;;;11.40;100.00
54600;BME280;40500;51.084;16.958;2023-05-12T01:04:38;100452.85;;;11.38;100.00
54600;BME280;40500;51.084;16.958;2023-05-12T01:07:11;100454.66;;;11.34;100.00
54600;BME280;40500;51.084;16.958;2023-05-12T01:09:45;100455.77;;;11.31;100.00
54600;BME280;40500;51.084;16.958;2023-05-12T01:12:16;100457.23;;;11.27;100.00
54600;BME280;40500;51.084;16.958;2023-05-12T01:14:46;100456.77;;;11.25;100.00
54600;BME280;40500;51.084;16.958;2023-05-12T01:17:21;100461.89;;;11.22;100.00
54600;BME280;40500;51.084;16.958;2023-05-12T01:19:55;100460.36;;;11.20;100.00
54600;BME280;40500;51.084;16.958;2023-05-12T01:22:28;100459.23;;;11.14;100.00
54600;BME280;40500;51.084;16.958;2023-05-12T01:25:03;100459.10;;;11.12;100.00
54600;BME280;40500;51.084;16.958;2023-05-12T01:27:35;100465.45;;;11.09;100.00
54600;BME280;40500;51.084;16.958;2023-05-12T01:30:09;100463.41;;;11.05;100.00
54600;BME280;40500;51.084;16.958;2023-05-12T01:32:42;100462.58;;;11.02;100.00
54600;BME280;40500;51.084;16.958;2023-05-12T01:35:13;100468.25;;;10.99;100.00
54600;BME280;40500;51.084;16.958;2023-05-12T01:37:48;100467.43;;;10.95;100.00
54600;BME280;40500;51.084;16.958;2023-05-12T01:40:20;100472.39;;;10.92;100.00
54600;BME280;40500;51.084;16.958;2023-05-12T01:42:51;100468.77;;;10.88;100.00
54600;BME280;40500;51.084;16.958;2023-05-12T01:45:22;100471.28;;;10.85;100.00
54600;BME280;40500;51.084;16.958;2023-05-12T01:47:54;100471.48;;;10.83;100.00
54600;BME280;40500;51.084;16.958;2023-05-12T01:50:24;100478.02;;;10.79;100.00
54600;BME280;40500;51.084;16.958;2023-05-12T01:52:55;100478.79;;;10.76;100.00
54600;BME280;40500;51.084;16.958;2023-05-12T01:55:26;100475.69;;;10.72;100.00
54600;BME280;40500;51.084;16.958;2023-05-12T01:57:58;100479.41;;;10.68;100.00
54600;BME280;40500;51.084;16.958;2023-05-12T02:00:28;100480.50;;;10.65;100.00
54600;BME280;40500;51.084;16.958;2023-05-12T02:02:59;100478.80;;;10.63;100.00
54600;BME280;40500;51.084;16.958;2023-05-12T02:05:30;100478.84;;;10.60;100.00
54600;BME280;40500;51.084;16.958;2023-05-12T02:08:01;100477.66;;;10.56;100.00
54600;BME280;40500;51.084;16.958;2023-05-12T02:10:32;100478.58;;;10.54;100.00
54600;BME280;40500;51.084;16.958;2023-05-12T02:13:02;100478.98;;;10.50;100.00
54600;BME280;40500;51.084;16.958;2023-05-12T02:15:33;100478.15;;;10.47;100.00
54600;BME280;40500;51.084;16.958;2023-05-12T02:18:03;100479.59;;;10.45;100.00
54600;BME280;40500;51.084;16.958;2023-05-12T02:20:34;100472.64;;;10.42;100.00
54600;BME280;40500;51.084;16.958;2023-05-12T02:23:04;100476.52;;;10.39;100.00
54600;BME280;40500;51.084;16.958;2023-05-12T02:25:34;100479.52;;;10.37;100.00
54600;BME280;40500;51.084;16.958;2023-05-12T02:28:05;100480.29;;;10.32;100.00
54600;BME280;40500;51.084;16.958;2023-05-12T02:30:43;100473.83;;;10.29;100.00
54600;BME280;40500;51.084;16.958;2023-05-12T02:33:13;100477.69;;;10.27;100.00
54600;BME280;40500;51.084;16.958;2023-05-12T02:35:44;100482.64;;;10.24;100.00
54600;BME280;40500;51.084;16.958;2023-05-12T02:38:14;100479.52;;;10.22;100.00
54600;BME280;40500;51.084;16.958;2023-05-12T02:40:46;100484.78;;;10.20;100.00
54600;BME280;40500;51.084;16.958;2023-05-12T02:43:16;100487.10;;;10.17;100.00
54600;BME280;40500;51.084;16.958;2023-05-12T02:45:47;100483.64;;;10.14;100.00
54600;BME280;40500;51.084;16.958;2023-05-12T02:48:17;100483.33;;;10.11;100.00
54600;BME280;40500;51.084;16.958;2023-05-12T02:50:48;100483.37;;;10.07;100.00
54600;BME280;40500;51.084;16.958;2023-05-12T02:53:19;100486.03;;;10.05;100.00
54600;BME280;40500;51.084;16.958;2023-05-12T02:55:49;100485.88;;;10.03;100.00
54600;BME280;40500;51.084;16.958;2023-05-12T02:58:20;100485.91;;;10.00;100.00
54600;BME280;40500;51.084;16.958;2023-05-12T03:00:51;100488.76;;;9.98;100.00
54600;BME280;40500;51.084;16.958;2023-05-12T03:03:35;100485.80;;;9.95;100.00
54600;BME280;40500;51.084;16.958;2023-05-12T03:06:06;100484.44;;;9.91;100.00
54600;BME280;40500;51.084;16.958;2023-05-12T03:08:36;100485.16;;;9.89;100.00
54600;BME280;40500;51.084;16.958;2023-05-12T03:11:07;100487.30;;;9.86;100.00
54600;BME280;40500;51.084;16.958;2023-05-12T03:13:37;100488.89;;;9.84;100.00
54600;BME280;40500;51.084;16.958;2023-05-12T03:16:08;100491.89;;;9.82;100.00
54600;BME280;40500;51.084;16.958;2023-05-12T03:18:38;100487.04;;;9.79;100.00
54600;BME280;40500;51.084;16.958;2023-05-12T03:21:09;100489.35;;;9.77;100.00
54600;BME280;40500;51.084;16.958;2023-05-12T03:23:39;100489.70;;;9.76;100.00
54600;BME280;40500;51.084;16.958;2023-05-12T03:26:10;100489.71;;;9.75;100.00
54600;BME280;40500;51.084;16.958;2023-05-12T03:28:41;100491.80;;;9.76;100.00
54600;BME280;40500;51.084;16.958;2023-05-12T03:31:11;100492.31;;;9.76;100.00
54600;BME280;40500;51.084;16.958;2023-05-12T03:33:41;100491.45;;;9.76;100.00
54600;BME280;40500;51.084;16.958;2023-05-12T03:36:12;100497.02;;;9.77;100.00
54600;BME280;40500;51.084;16.958;2023-05-12T03:38:42;100497.38;;;9.78;100.00
54600;BME280;40500;51.084;16.958;2023-05-12T03:41:15;100499.11;;;9.77;100.00
54600;BME280;40500;51.084;16.958;2023-05-12T03:43:46;100502.11;;;9.76;100.00
54600;BME280;40500;51.084;16.958;2023-05-12T03:46:16;100502.66;;;9.75;100.00
54600;BME280;40500;51.084;16.958;2023-05-12T03:48:47;100503.34;;;9.75;100.00
54600;BME280;40500;51.084;16.958;2023-05-12T03:51:18;100509.96;;;9.77;100.00
54600;BME280;40500;51.084;16.958;2023-05-12T03:53:48;100512.23;;;9.78;100.00
54600;BME280;40500;51.084;16.958;2023-05-12T03:56:18;100509.26;;;9.78;100.00
54600;BME280;40500;51.084;16.958;2023-05-12T03:58:49;100509.61;;;9.78;100.00
54600;BME280;40500;51.084;16.958;2023-05-12T04:01:19;100513.42;;;9.81;100.00
54600;BME280;40500;51.084;16.958;2023-05-12T04:03:50;100512.84;;;9.86;100.00
54600;BME280;40500;51.084;16.958;2023-05-12T04:06:20;100516.63;;;9.90;100.00
54600;BME280;40500;51.084;16.958;2023-05-12T04:08:51;100515.88;;;9.96;100.00
54600;BME280;40500;51.084;16.958;2023-05-12T04:11:21;100514.77;;;10.02;100.00
54600;BME280;40500;51.084;16.958;2023-05-12T04:13:52;100511.20;;;10.07;100.00
54600;BME280;40500;51.084;16.958;2023-05-12T04:16:23;100515.51;;;10.12;100.00
54600;BME280;40500;51.084;16.958;2023-05-12T04:18:53;100511.05;;;10.19;100.00
54600;BME280;40500;51.084;16.958;2023-05-12T04:21:25;100517.30;;;10.24;100.00
54600;BME280;40500;51.084;16.958;2023-05-12T04:23:56;100519.69;;;10.30;100.00
54600;BME280;40500;51.084;16.958;2023-05-12T04:26:29;100520.54;;;10.33;100.00
54600;BME280;40500;51.084;16.958;2023-05-12T04:28:59;100521.55;;;10.35;100.00
54600;BME280;40500;51.084;16.958;2023-05-12T04:31:30;100523.09;;;10.37;100.00
54600;BME280;40500;51.084;16.958;2023-05-12T04:34:01;100528.63;;;10.43;100.00
54600;BME280;40500;51.084;16.958;2023-05-12T04:36:32;100525.56;;;10.49;100.00
54600;BME280;40500;51.084;16.958;2023-05-12T04:39:02;100532.80;;;10.58;100.00
54600;BME280;40500;51.084;16.958;2023-05-12T04:41:33;100529.35;;;10.66;100.00
54600;BME280;40500;51.084;16.958;2023-05-12T04:44:05;100532.52;;;10.78;100.00
54600;BME280;40500;51.084;16.958;2023-05-12T04:46:36;100532.23;;;10.86;100.00
54600;BME280;40500;51.084;16.958;2023-05-12T04:49:06;100533.83;;;10.96;100.00
54600;BME280;40500;51.084;16.958;2023-05-12T04:51:37;100532.41;;;11.08;100.00
54600;BME280;40500;51.084;16.958;2023-05-12T04:54:10;100535.36;;;11.20;100.00
54600;BME280;40500;51.084;16.958;2023-05-12T04:56:41;100537.66;;;11.30;100.00
54600;BME280;40500;51.084;16.958;2023-05-12T04:59:13;100543.31;;;11.38;100.00
54600;BME280;40500;51.084;16.958;2023-05-12T05:01:46;100542.40;;;11.50;100.00
54600;BME280;40500;51.084;16.958;2023-05-12T05:04:16;100539.83;;;12.04;100.00
54600;BME280;40500;51.084;16.958;2023-05-12T05:06:47;100538.38;;;12.51;100.00
54600;BME280;40500;51.084;16.958;2023-05-12T05:09:18;100542.21;;;12.52;100.00
54600;BME280;40500;51.084;16.958;2023-05-12T05:11:49;100538.09;;;12.55;100.00
54600;BME280;40500;51.084;16.958;2023-05-12T05:14:19;100543.31;;;12.58;100.00
54600;BME280;40500;51.084;16.958;2023-05-12T05:16:50;100546.25;;;12.60;100.00
54600;BME280;40500;51.084;16.958;2023-05-12T05:19:20;100545.50;;;12.62;100.00
54600;BME280;40500;51.084;16.958;2023-05-12T05:22:07;100544.67;;;12.68;100.00
54600;BME280;40500;51.084;16.958;2023-05-12T05:24:37;100543.11;;;12.75;100.00
54600;BME280;40500;51.084;16.958;2023-05-12T05:27:08;100545.27;;;12.81;100.00
54600;BME280;40500;51.084;16.958;2023-05-12T05:29:38;100544.51;;;12.83;100.00
54600;BME280;40500;51.084;16.958;2023-05-12T05:32:11;100545.96;;;12.88;100.00
54600;BME280;40500;51.084;16.958;2023-05-12T05:34:41;100547.27;;;12.93;100.00
54600;BME280;40500;51.084;16.958;2023-05-12T05:37:12;100545.60;;;12.97;100.00
54600;BME280;40500;51.084;16.958;2023-05-12T05:39:42;100549.18;;;13.01;100.00
54600;BME280;40500;51.084;16.958;2023-05-12T05:42:13;100548.20;;;13.06;100.00
54600;BME280;40500;51.084;16.958;2023-05-12T05:44:44;100550.92;;;13.09;100.00
54600;BME280;40500;51.084;16.958;2023-05-12T05:47:15;100549.77;;;13.13;100.00
54600;BME280;40500;51.084;16.958;2023-05-12T05:49:46;100544.73;;;13.19;100.00
54600;BME280;40500;51.084;16.958;2023-05-12T05:52:16;100552.13;;;13.25;100.00
54600;BME280;40500;51.084;16.958;2023-05-12T05:54:47;100551.97;;;13.32;100.00
54600;BME280;40500;51.084;16.958;2023-05-12T05:57:18;100556.60;;;13.38;100.00
54600;BME280;40500;51.084;16.958;2023-05-12T05:59:49;100558.42;;;13.42;100.00
54600;BME280;40500;51.084;16.958;2023-05-12T06:02:20;100557.09;;;13.47;100.00
54600;BME280;40500;51.084;16.958;2023-05-12T06:04:51;100559.10;;;13.50;100.00
54600;BME280;40500;51.084;16.958;2023-05-12T06:07:22;100559.52;;;13.54;100.00
54600;BME280;40500;51.084;16.958;2023-05-12T06:09:53;100564.94;;;13.62;100.00
54600;BME280;40500;51.084;16.958;2023-05-12T06:12:23;100567.23;;;13.70;100.00
54600;BME280;40500;51.084;16.958;2023-05-12T06:14:54;100559.96;;;13.78;100.00
54600;BME280;40500;51.084;16.958;2023-05-12T06:17:24;100560.30;;;13.85;100.00
54600;BME280;40500;51.084;16.958;2023-05-12T06:19:54;100559.77;;;13.92;100.00
54600;BME280;40500;51.084;16.958;2023-05-12T06:22:25;100557.33;;;14.03;100.00
54600;BME280;40500;51.084;16.958;2023-05-12T06:24:56;100563.23;;;14.50;100.00
54600;BME280;40500;51.084;16.958;2023-05-12T06:27:26;100557.27;;;15.13;100.00
54600;BME280;40500;51.084;16.958;2023-05-12T06:29:56;100558.88;;;15.65;100.00
54600;BME280;40500;51.084;16.958;2023-05-12T06:32:27;100562.12;;;16.05;100.00
54600;BME280;40500;51.084;16.958;2023-05-12T06:34:57;100560.73;;;16.13;100.00
54600;BME280;40500;51.084;16.958;2023-05-12T06:37:28;100560.30;;;15.91;100.00
54600;BME280;40500;51.084;16.958;2023-05-12T06:39:58;100567.15;;;15.72;100.00
54600;BME280;40500;51.084;16.958;2023-05-12T06:42:29;100566.88;;;15.59;100.00
54600;BME280;40500;51.084;16.958;2023-05-12T06:44:59;100564.20;;;15.44;100.00
54600;BME280;40500;51.084;16.958;2023-05-12T06:47:30;100562.86;;;15.31;100.00
54600;BME280;40500;51.084;16.958;2023-05-12T06:50:01;100563.73;;;15.26;100.00
54600;BME280;40500;51.084;16.958;2023-05-12T06:52:31;100562.96;;;15.23;100.00
54600;BME280;40500;51.084;16.958;2023-05-12T06:55:01;100563.48;;;15.22;100.00
54600;BME280;40500;51.084;16.958;2023-05-12T06:57:32;100564.17;;;15.23;100.00
54600;BME280;40500;51.084;16.958;2023-05-12T07:00:03;100563.74;;;15.25;100.00
54600;BME280;40500;51.084;16.958;2023-05-12T07:02:33;100562.08;;;15.22;100.00
54600;BME280;40500;51.084;16.958;2023-05-12T07:05:04;100559.76;;;15.18;100.00
54600;BME280;40500;51.084;16.958;2023-05-12T07:07:34;100562.13;;;15.20;100.00
54600;BME280;40500;51.084;16.958;2023-05-12T07:10:06;100561.57;;;15.22;100.00
54600;BME280;40500;51.084;16.958;2023-05-12T07:12:37;100561.27;;;15.25;100.00
54600;BME280;40500;51.084;16.958;2023-05-12T07:15:09;100560.23;;;15.30;100.00
54600;BME280;40500;51.084;16.958;2023-05-12T07:17:40;100559.70;;;15.35;100.00
54600;BME280;40500;51.084;16.958;2023-05-12T07:20:11;100557.92;;;15.41;100.00
54600;BME280;40500;51.084;16.958;2023-05-12T07:22:41;100558.91;;;15.49;100.00
54600;BME280;40500;51.084;16.958;2023-05-12T07:25:12;100559.91;;;15.56;100.00
54600;BME280;40500;51.084;16.958;2023-05-12T07:27:44;100558.79;;;15.63;100.00
54600;BME280;40500;51.084;16.958;2023-05-12T07:30:15;100558.88;;;15.71;100.00
54600;BME280;40500;51.084;16.958;2023-05-12T07:32:45;100561.64;;;15.78;100.00
54600;BME280;40500;51.084;16.958;2023-05-12T07:35:16;100554.50;;;15.80;100.00
54600;BME280;40500;51.084;16.958;2023-05-12T07:37:47;100554.04;;;15.84;100.00
54600;BME280;40500;51.084;16.958;2023-05-12T07:40:18;100558.83;;;15.89;100.00
54600;BME280;40500;51.084;16.958;2023-05-12T07:42:48;100561.29;;;15.93;100.00
54600;BME280;40500;51.084;16.958;2023-05-12T07:45:19;100561.51;;;15.97;100.00
54600;BME280;40500;51.084;16.958;2023-05-12T07:47:51;100557.98;;;16.02;100.00
54600;BME280;40500;51.084;16.958;2023-05-12T07:50:22;100558.86;;;16.07;100.00
54600;BME280;40500;51.084;16.958;2023-05-12T07:52:53;100558.11;;;16.09;100.00
54600;BME280;40500;51.084;16.958;2023-05-12T07:55:23;100552.44;;;16.13;100.00
54600;BME280;40500;51.084;16.958;2023-05-12T07:57:54;100551.84;;;16.15;100.00
54600;BME280;40500;51.084;16.958;2023-05-12T08:00:25;100553.27;;;16.20;100.00
54600;BME280;40500;51.084;16.958;2023-05-12T08:02:56;100555.36;;;16.26;100.00
54600;BME280;40500;51.084;16.958;2023-05-12T08:05:27;100555.54;;;16.30;100.00
54600;BME280;40500;51.084;16.958;2023-05-12T08:07:57;100551.96;;;16.36;100.00
54600;BME280;40500;51.084;16.958;2023-05-12T08:10:28;100548.91;;;16.42;100.00
54600;BME280;40500;51.084;16.958;2023-05-12T08:13:00;100549.34;;;16.49;100.00
54600;BME280;40500;51.084;16.958;2023-05-12T08:15:31;100547.73;;;16.54;100.00
54600;BME280;40500;51.084;16.958;2023-05-12T08:18:01;100552.23;;;16.57;100.00
54600;BME280;40500;51.084;16.958;2023-05-12T08:20:31;100553.66;;;16.61;100.00
54600;BME280;40500;51.084;16.958;2023-05-12T08:23:03;100553.17;;;16.65;100.00
54600;BME280;40500;51.084;16.958;2023-05-12T08:25:33;100551.20;;;16.70;100.00
54600;BME280;40500;51.084;16.958;2023-05-12T08:28:05;100551.83;;;16.77;100.00
54600;BME280;40500;51.084;16.958;2023-05-12T08:30:35;100551.96;;;16.83;100.00
54600;BME280;40500;51.084;16.958;2023-05-12T08:33:06;100555.04;;;16.90;100.00
54600;BME280;40500;51.084;16.958;2023-05-12T08:35:36;100553.92;;;16.96;100.00
54600;BME280;40500;51.084;16.958;2023-05-12T08:38:07;100548.23;;;17.02;100.00
54600;BME280;40500;51.084;16.958;2023-05-12T08:40:46;100545.16;;;17.08;100.00
54600;BME280;40500;51.084;16.958;2023-05-12T08:43:24;100543.77;;;17.15;100.00
54600;BME280;40500;51.084;16.958;2023-05-12T08:45:58;100547.81;;;17.21;100.00
54600;BME280;40500;51.084;16.958;2023-05-12T08:48:32;100549.86;;;17.23;100.00
54600;BME280;40500;51.084;16.958;2023-05-12T08:51:05;100548.02;;;17.24;100.00
54600;BME280;40500;51.084;16.958;2023-05-12T08:53:39;100543.46;;;17.27;100.00
54600;BME280;40500;51.084;16.958;2023-05-12T08:56:11;100548.82;;;17.30;100.00
54600;BME280;40500;51.084;16.958;2023-05-12T08:58:45;100548.15;;;17.33;100.00
54600;BME280;40500;51.084;16.958;2023-05-12T09:01:16;100550.08;;;17.38;100.00
54600;BME280;40500;51.084;16.958;2023-05-12T09:03:48;100541.30;;;17.45;100.00
54600;BME280;40500;51.084;16.958;2023-05-12T09:06:21;100547.04;;;17.52;100.00
54600;BME280;40500;51.084;16.958;2023-05-12T09:08:52;100544.52;;;17.57;100.00
54600;BME280;40500;51.084;16.958;2023-05-12T09:11:22;100545.88;;;17.63;100.00
54600;BME280;40500;51.084;16.958;2023-05-12T09:13:57;100543.94;;;17.66;100.00
54600;BME280;40500;51.084;16.958;2023-05-12T09:16:30;100544.63;;;17.71;100.00
54600;BME280;40500;51.084;16.958;2023-05-12T09:19:02;100548.12;;;17.80;100.00
54600;BME280;40500;51.084;16.958;2023-05-12T09:21:35;100537.39;;;17.87;100.00
54600;BME280;40500;51.084;16.958;2023-05-12T09:24:06;100536.14;;;17.95;100.00
54600;BME280;40500;51.084;16.958;2023-05-12T09:26:46;100533.83;;;18.00;100.00
54600;BME280;40500;51.084;16.958;2023-05-12T09:29:18;100529.67;;;18.02;100.00
54600;BME280;40500;51.084;16.958;2023-05-12T09:32:02;100535.97;;;18.07;100.00
54600;BME280;40500;51.084;16.958;2023-05-12T09:34:34;100530.91;;;18.13;100.00
54600;BME280;40500;51.084;16.958;2023-05-12T09:37:07;100533.87;;;18.19;100.00
54600;BME280;40500;51.084;16.958;2023-05-12T09:39:37;100536.23;;;18.25;100.00
54600;BME280;40500;51.084;16.958;2023-05-12T09:42:12;100530.02;;;18.33;100.00
54600;BME280;40500;51.084;16.958;2023-05-12T09:44:42;100523.10;;;18.37;100.00
54600;BME280;40500;51.084;16.958;2023-05-12T09:47:15;100527.36;;;18.41;100.00
54600;BME280;40500;51.084;16.958;2023-05-12T09:49:52;100527.11;;;18.46;100.00
54600;BME280;40500;51.084;16.958;2023-05-12T09:52:23;100523.34;;;18.51;100.00
54600;BME280;40500;51.084;16.958;2023-05-12T09:54:53;100525.05;;;18.56;100.00
54600;BME280;40500;51.084;16.958;2023-05-12T09:57:25;100525.40;;;18.64;100.00
54600;BME280;40500;51.084;16.958;2023-05-12T09:59:57;100520.43;;;18.71;100.00
54600;BME280;40500;51.084;16.958;2023-05-12T10:02:28;100516.80;;;18.76;100.00
54600;BME280;40500;51.084;16.958;2023-05-12T10:05:04;100518.84;;;18.83;100.00
54600;BME280;40500;51.084;16.958;2023-05-12T10:07:36;100513.11;;;18.91;100.00
54600;BME280;40500;51.084;16.958;2023-05-12T10:10:09;100514.53;;;18.95;100.00
54600;BME280;40500;51.084;16.958;2023-05-12T10:12:41;100513.02;;;19.01;100.00
54600;BME280;40500;51.084;16.958;2023-05-12T10:15:14;100511.17;;;19.06;100.00
54600;BME280;40500;51.084;16.958;2023-05-12T10:17:49;100507.29;;;19.09;100.00
54600;BME280;40500;51.084;16.958;2023-05-12T10:20:23;100507.61;;;19.13;100.00
54600;BME280;40500;51.084;16.958;2023-05-12T10:22:54;100504.47;;;19.19;100.00
54600;BME280;40500;51.084;16.958;2023-05-12T10:25:27;100497.42;;;19.25;100.00
54600;BME280;40500;51.084;16.958;2023-05-12T10:27:59;100502.58;;;19.32;99.59
54600;BME280;40500;51.084;16.958;2023-05-12T10:30:30;100502.38;;;19.43;98.67
54600;BME280;40500;51.084;16.958;2023-05-12T10:33:01;100500.83;;;19.52;96.20
54600;BME280;40500;51.084;16.958;2023-05-12T10:35:35;100504.81;;;19.64;93.75
54600;BME280;40500;51.084;16.958;2023-05-12T10:38:11;100504.23;;;19.76;92.81
54600;BME280;40500;51.084;16.958;2023-05-12T10:40:52;100503.23;;;19.86;91.50
54600;BME280;40500;51.084;16.958;2023-05-12T10:43:24;100499.38;;;19.97;91.35
54600;BME280;40500;51.084;16.958;2023-05-12T10:46:16;100502.66;;;20.09;91.77
54600;BME280;40500;51.084;16.958;2023-05-12T10:48:57;100496.27;;;20.19;89.99
54600;BME280;40500;51.084;16.958;2023-05-12T10:51:29;100506.30;;;20.27;86.67
54600;BME280;40500;51.084;16.958;2023-05-12T10:54:03;100494.98;;;20.43;84.22
54600;BME280;40500;51.084;16.958;2023-05-12T10:56:43;100486.73;;;20.64;84.30
54600;BME280;40500;51.084;16.958;2023-05-12T10:59:15;100488.05;;;20.75;83.43
54600;BME280;40500;51.084;16.958;2023-05-12T11:02:02;100488.97;;;20.68;83.13
54600;BME280;40500;51.084;16.958;2023-05-12T11:04:45;100489.66;;;20.71;82.68
54600;BME280;40500;51.084;16.958;2023-05-12T11:07:20;100482.61;;;20.82;82.50
54600;BME280;40500;51.084;16.958;2023-05-12T11:09:54;100483.45;;;20.80;81.56
54600;BME280;40500;51.084;16.958;2023-05-12T11:12:30;100489.29;;;20.71;79.87
54600;BME280;40500;51.084;16.958;2023-05-12T11:15:02;100494.73;;;20.67;79.97
54600;BME280;40500;51.084;16.958;2023-05-12T11:17:33;100499.98;;;20.68;80.08
54600;BME280;40500;51.084;16.958;2023-05-12T11:20:08;100496.16;;;20.73;79.04
54600;BME280;40500;51.084;16.958;2023-05-12T11:22:41;100493.73;;;20.81;78.69
54600;BME280;40500;51.084;16.958;2023-05-12T11:25:14;100494.48;;;20.90;78.44
54600;BME280;40500;51.084;16.958;2023-05-12T11:27:47;100497.11;;;20.97;79.32
54600;BME280;40500;51.084;16.958;2023-05-12T11:30:20;100494.66;;;20.99;79.93
54600;BME280;40500;51.084;16.958;2023-05-12T11:33:00;100497.02;;;20.99;78.82
54600;BME280;40500;51.084;16.958;2023-05-12T11:35:32;100498.14;;;21.25;79.61
54600;BME280;40500;51.084;16.958;2023-05-12T11:38:02;100495.96;;;21.50;79.42
54600;BME280;40500;51.084;16.958;2023-05-12T11:40:43;100502.05;;;21.62;77.76
54600;BME280;40500;51.084;16.958;2023-05-12T11:43:14;100499.98;;;21.64;75.31
54600;BME280;40500;51.084;16.958;2023-05-12T11:45:49;100501.25;;;21.60;75.54
54600;BME280;40500;51.084;16.958;2023-05-12T11:48:19;100503.11;;;21.65;75.41
54600;BME280;40500;51.084;16.958;2023-05-12T11:50:50;100502.17;;;21.71;77.00
54600;BME280;40500;51.084;16.958;2023-05-12T11:53:20;100501.92;;;21.87;77.35
54600;BME280;40500;51.084;16.958;2023-05-12T11:55:54;100501.35;;;21.99;75.41
54600;BME280;40500;51.084;16.958;2023-05-12T11:58:26;100506.80;;;21.92;74.09
54600;BME280;40500;51.084;16.958;2023-05-12T12:01:09;100502.75;;;21.85;74.60
54600;BME280;40500;51.084;16.958;2023-05-12T12:03:47;100502.30;;;21.81;72.87
54600;BME280;40500;51.084;16.958;2023-05-12T12:06:18;100503.54;;;21.93;72.50
54600;BME280;40500;51.084;16.958;2023-05-12T12:08:54;100495.58;;;22.26;70.40
54600;BME280;40500;51.084;16.958;2023-05-12T12:11:25;100497.38;;;22.60;70.41
54600;BME280;40500;51.084;16.958;2023-05-12T12:13:57;100499.23;;;22.84;70.37
54600;BME280;40500;51.084;16.958;2023-05-12T12:16:30;100499.32;;;22.90;70.60
54600;BME280;40500;51.084;16.958;2023-05-12T12:19:01;100498.67;;;22.87;70.36
54600;BME280;40500;51.084;16.958;2023-05-12T12:21:31;100504.63;;;22.80;70.37
54600;BME280;40500;51.084;16.958;2023-05-12T12:24:01;100500.96;;;22.62;70.32
54600;BME280;40500;51.084;16.958;2023-05-12T12:26:33;100506.48;;;22.41;70.06
54600;BME280;40500;51.084;16.958;2023-05-12T12:29:05;100511.29;;;22.17;67.94
54600;BME280;40500;51.084;16.958;2023-05-12T12:31:37;100508.52;;;21.96;67.99
54600;BME280;40500;51.084;16.958;2023-05-12T12:34:07;100510.36;;;21.77;67.52
54600;BME280;40500;51.084;16.958;2023-05-12T12:36:38;100508.34;;;21.64;68.23
54600;BME280;40500;51.084;16.958;2023-05-12T12:39:09;100508.25;;;21.56;68.82
54600;BME280;40500;51.084;16.958;2023-05-12T12:41:39;100504.60;;;21.58;69.63
54600;BME280;40500;51.084;16.958;2023-05-12T12:44:10;100501.74;;;21.78;70.23
54600;BME280;40500;51.084;16.958;2023-05-12T12:46:40;100502.13;;;22.30;70.59
54600;BME280;40500;51.084;16.958;2023-05-12T12:49:11;100496.77;;;22.78;72.56
54600;BME280;40500;51.084;16.958;2023-05-12T12:51:41;100495.61;;;23.04;71.77
54600;BME280;40500;51.084;16.958;2023-05-12T12:54:15;100496.08;;;23.07;70.27
54600;BME280;40500;51.084;16.958;2023-05-12T12:56:45;100495.37;;;23.07;70.46